Wetterstation Vordersexau
Wetterdaten: Woche 20.03.23 - 26.03.23 (KW12)
Datum Zeit Temp. A. Feuchte A. Luftdruck Regen Wind Richtung Taupunkt Windchill Windben
20.03.2023 00:00 7,1 C 98 % 1016,2 hPa 0,0 l/m 0,0 km/h (0 Bft) N 6,8 C 7,1 C 0,0 km/h (0 Bft)
20.03.2023 01:00 7,5 C 99 % 1016,3 hPa 0,0 l/m 0,0 km/h (0 Bft) N 7,4 C 7,5 C 0,0 km/h (0 Bft)
20.03.2023 02:00 7,6 C 99 % 1016,4 hPa 0,0 l/m 0,0 km/h (0 Bft) N 7,5 C 7,6 C 0,0 km/h (0 Bft)
20.03.2023 03:00 7,6 C 99 % 1016,6 hPa 0,0 l/m 0,0 km/h (0 Bft) N 7,5 C 7,6 C 0,0 km/h (0 Bft)
20.03.2023 04:00 7,4 C 99 % 1016,9 hPa 0,0 l/m 0,0 km/h (0 Bft) SW 7,3 C 7,4 C 0,0 km/h (0 Bft)
20.03.2023 05:00 7,4 C 96 % 1017,0 hPa 0,0 l/m 1,1 km/h (1 Bft) N 6,8 C 7,4 C 2,5 km/h (1 Bft)
20.03.2023 06:00 7,3 C 96 % 1017,3 hPa 0,0 l/m 0,0 km/h (0 Bft) N 6,7 C 7,3 C 0,0 km/h (0 Bft)
20.03.2023 07:00 7,5 C 97 % 1017,5 hPa 0,0 l/m 0,0 km/h (0 Bft) N 7,1 C 7,5 C 0,0 km/h (0 Bft)
20.03.2023 08:00 8,2 C 94 % 1018,0 hPa 0,0 l/m 0,0 km/h (0 Bft) N 7,3 C 8,2 C 0,0 km/h (0 Bft)
20.03.2023 09:00 9,3 C 92 % 1018,1 hPa 0,0 l/m 0,0 km/h (0 Bft) SW 8,1 C 9,3 C 2,5 km/h (1 Bft)
20.03.2023 10:00 10,6 C 84 % 1018,0 hPa 0,0 l/m 3,6 km/h (1 Bft) SW 8,0 C 10,6 C 6,1 km/h (2 Bft)
20.03.2023 11:00 10,8 C 78 % 1018,1 hPa 0,0 l/m 5,0 km/h (1 Bft) SW 7,1 C 10,8 C 6,1 km/h (2 Bft)
20.03.2023 12:00 11,4 C 74 % 1018,2 hPa 0,0 l/m 6,1 km/h (2 Bft) SW 6,9 C 11,4 C 7,2 km/h (2 Bft)
20.03.2023 13:00 12,5 C 71 % 1017,5 hPa 0,0 l/m 2,5 km/h (1 Bft) SW 7,4 C 12,5 C 3,6 km/h (1 Bft)
20.03.2023 14:00 12,6 C 65 % 1016,8 hPa 0,0 l/m 2,5 km/h (1 Bft) SW 6,2 C 12,6 C 3,6 km/h (1 Bft)
20.03.2023 15:00 12,3 C 68 % 1016,6 hPa 0,0 l/m 2,5 km/h (1 Bft) SW 6,6 C 12,3 C 3,6 km/h (1 Bft)
20.03.2023 16:00 13,2 C 64 % 1016,2 hPa 0,0 l/m 1,1 km/h (1 Bft) SW 6,5 C 13,2 C 3,6 km/h (1 Bft)
20.03.2023 17:00 13,1 C 61 % 1015,9 hPa 0,0 l/m 1,1 km/h (1 Bft) N 5,8 C 13,1 C 2,5 km/h (1 Bft)
20.03.2023 18:00 11,6 C 72 % 1015,8 hPa 0,0 l/m 0,0 km/h (0 Bft) SW 6,7 C 11,6 C 0,0 km/h (0 Bft)
20.03.2023 19:00 9,6 C 79 % 1016,2 hPa 0,0 l/m 1,1 km/h (1 Bft) SW 6,1 C 9,6 C 2,5 km/h (1 Bft)
20.03.2023 20:00 8,6 C 84 % 1016,0 hPa 0,0 l/m 1,1 km/h (1 Bft) SO 6,1 C 8,6 C 2,5 km/h (1 Bft)
20.03.2023 21:00 8,5 C 85 % 1016,1 hPa 0,0 l/m 1,1 km/h (1 Bft) SO 6,1 C 8,5 C 3,6 km/h (1 Bft)
20.03.2023 22:00 7,5 C 88 % 1016,0 hPa 0,0 l/m 2,5 km/h (1 Bft) N 5,6 C 7,5 C 6,1 km/h (2 Bft)
20.03.2023 23:00 7,1 C 88 % 1016,0 hPa 0,0 l/m 0,0 km/h (0 Bft) N 5,2 C 7,1 C 0,0 km/h (0 Bft)
21.03.2023 00:00 5,8 C 92 % 1015,7 hPa 0,0 l/m 0,0 km/h (0 Bft) N 4,6 C 5,8 C 2,5 km/h (1 Bft)
21.03.2023 01:00 4,7 C 92 % 1015,5 hPa 0,0 l/m 0,0 km/h (0 Bft) N 3,5 C 4,7 C 0,0 km/h (0 Bft)
21.03.2023 02:00 4,6 C 93 % 1015,2 hPa 0,0 l/m 0,0 km/h (0 Bft) O 3,6 C 4,6 C 2,5 km/h (1 Bft)
21.03.2023 03:00 4,3 C 94 % 1014,7 hPa 0,0 l/m 1,1 km/h (1 Bft) O 3,4 C 4,3 C 3,6 km/h (1 Bft)
21.03.2023 04:00 4,1 C 94 % 1014,4 hPa 0,0 l/m 1,1 km/h (1 Bft) O 3,2 C 4,1 C 3,6 km/h (1 Bft)
21.03.2023 05:00 3,5 C 95 % 1014,3 hPa 0,0 l/m 1,1 km/h (1 Bft) N 2,8 C 3,5 C 2,5 km/h (1 Bft)
21.03.2023 06:00 3,0 C 95 % 1014,2 hPa 0,0 l/m 0,0 km/h (0 Bft) N 2,3 C 3,0 C 0,0 km/h (0 Bft)
21.03.2023 07:00 3,9 C 95 % 1014,0 hPa 0,0 l/m 0,0 km/h (0 Bft) O-SO 3,2 C 3,9 C 0,0 km/h (0 Bft)
21.03.2023 08:00 7,9 C 84 % 1013,9 hPa 0,0 l/m 3,6 km/h (1 Bft) O 5,4 C 7,9 C 7,2 km/h (2 Bft)
21.03.2023 09:00 9,6 C 81 % 1014,0 hPa 0,0 l/m 1,1 km/h (1 Bft) N 6,5 C 9,6 C 2,5 km/h (1 Bft)
21.03.2023 10:00 12,0 C 76 % 1014,0 hPa 0,0 l/m 0,0 km/h (0 Bft) N 7,9 C 12,0 C 0,0 km/h (0 Bft)
21.03.2023 11:00 12,8 C 70 % 1013,6 hPa 0,0 l/m 3,6 km/h (1 Bft) N-NW 7,5 C 12,8 C 7,2 km/h (2 Bft)
21.03.2023 12:00 15,3 C 63 % 1013,0 hPa 0,0 l/m 1,1 km/h (1 Bft) N-NW 8,3 C 15,3 C 2,5 km/h (1 Bft)
21.03.2023 13:00 14,9 C 61 % 1012,5 hPa 0,0 l/m 2,5 km/h (1 Bft) NW 7,4 C 14,9 C 6,1 km/h (2 Bft)
21.03.2023 14:00 15,8 C 66 % 1011,7 hPa 0,0 l/m 3,6 km/h (1 Bft) NW 9,5 C 15,8 C 3,6 km/h (1 Bft)
21.03.2023 15:00 16,1 C 56 % 1011,5 hPa 0,0 l/m 5,0 km/h (1 Bft) NW 7,3 C 16,1 C 7,2 km/h (2 Bft)
21.03.2023 16:00 15,8 C 57 % 1011,0 hPa 0,0 l/m 2,5 km/h (1 Bft) NW 7,3 C 15,8 C 3,6 km/h (1 Bft)
21.03.2023 17:00 15,1 C 66 % 1011,1 hPa 0,0 l/m 1,1 km/h (1 Bft) W-SW 8,8 C 15,1 C 2,5 km/h (1 Bft)
21.03.2023 18:00 15,1 C 59 % 1011,4 hPa 0,0 l/m 6,1 km/h (2 Bft) W-SW 7,1 C 15,1 C 7,2 km/h (2 Bft)
21.03.2023 19:00 14,3 C 64 % 1011,4 hPa 0,0 l/m 2,5 km/h (1 Bft) W-NW 7,6 C 14,3 C 6,1 km/h (2 Bft)
21.03.2023 20:00 14,0 C 62 % 1011,5 hPa 0,0 l/m 1,1 km/h (1 Bft) W-NW 6,8 C 14,0 C 3,6 km/h (1 Bft)
21.03.2023 21:00 13,2 C 65 % 1011,8 hPa 0,0 l/m 2,5 km/h (1 Bft) N 6,8 C 13,2 C 3,6 km/h (1 Bft)
21.03.2023 22:00 12,6 C 68 % 1011,9 hPa 0,0 l/m 0,0 km/h (0 Bft) NO 6,9 C 12,6 C 0,0 km/h (0 Bft)
21.03.2023 23:00 11,2 C 76 % 1011,7 hPa 0,0 l/m 3,6 km/h (1 Bft) NO 7,1 C 11,2 C 7,2 km/h (2 Bft)
22.03.2023 00:00 8,9 C 84 % 1012,0 hPa 0,0 l/m 2,5 km/h (1 Bft) NO 6,3 C 8,9 C 3,6 km/h (1 Bft)
22.03.2023 01:00 7,0 C 88 % 1011,8 hPa 0,0 l/m 2,5 km/h (1 Bft) NO 5,2 C 7,0 C 3,6 km/h (1 Bft)
22.03.2023 02:00 6,1 C 90 % 1011,3 hPa 0,0 l/m 2,5 km/h (1 Bft) NO 4,6 C 6,1 C 3,6 km/h (1 Bft)
22.03.2023 03:00 5,5 C 91 % 1011,2 hPa 0,0 l/m 2,5 km/h (1 Bft) N 4,2 C 5,5 C 3,6 km/h (1 Bft)
22.03.2023 04:00 5,2 C 92 % 1011,0 hPa 0,0 l/m 0,0 km/h (0 Bft) O 4,0 C 5,2 C 3,6 km/h (1 Bft)
22.03.2023 05:00 4,8 C 91 % 1010,9 hPa 0,0 l/m 3,6 km/h (1 Bft) O-NO 3,5 C 4,8 C 6,1 km/h (2 Bft)
22.03.2023 06:00 4,9 C 92 % 1010,4 hPa 0,0 l/m 1,1 km/h (1 Bft) O-NO 3,7 C 4,9 C 2,5 km/h (1 Bft)
22.03.2023 07:00 5,0 C 92 % 1010,7 hPa 0,0 l/m 1,1 km/h (1 Bft) O 3,8 C 5,0 C 2,5 km/h (1 Bft)
22.03.2023 08:00 9,9 C 81 % 1010,8 hPa 0,0 l/m 3,6 km/h (1 Bft) O 6,8 C 9,9 C 6,1 km/h (2 Bft)
22.03.2023 09:00 13,9 C 71 % 1010,6 hPa 0,0 l/m 1,1 km/h (1 Bft) W-SW 8,7 C 13,9 C 2,5 km/h (1 Bft)
22.03.2023 10:00 15,9 C 67 % 1009,9 hPa 0,0 l/m 11,2 km/h (2 Bft) W 9,8 C 13,6 C 13,3 km/h (3 Bft)
22.03.2023 11:00 16,9 C 56 % 1009,6 hPa 0,0 l/m 11,2 km/h (2 Bft) W-SW 8,1 C 14,8 C 14,8 km/h (3 Bft)
22.03.2023 12:00 17,4 C 57 % 1009,5 hPa 0,0 l/m 13,3 km/h (3 Bft) W-SW 8,8 C 14,6 C 18,4 km/h (3 Bft)
22.03.2023 13:00 18,5 C 54 % 1009,0 hPa 0,0 l/m 15,8 km/h (3 Bft) S 9,0 C 15,2 C 22,0 km/h (4 Bft)
22.03.2023 14:00 19,1 C 51 % 1008,5 hPa 0,0 l/m 8,6 km/h (2 Bft) W-SW 8,7 C 18,2 C 14,8 km/h (3 Bft)
22.03.2023 15:00 18,6 C 47 % 1007,8 hPa 0,0 l/m 14,8 km/h (3 Bft) W-NW 7,1 C 15,6 C 20,9 km/h (4 Bft)
22.03.2023 16:00 19,0 C 43 % 1007,1 hPa 0,0 l/m 13,3 km/h (3 Bft) W 6,1 C 16,5 C 18,4 km/h (3 Bft)
22.03.2023 17:00 18,1 C 43 % 1007,1 hPa 0,0 l/m 8,6 km/h (2 Bft) S-SW 5,3 C 17,1 C 11,2 km/h (2 Bft)
22.03.2023 18:00 16,5 C 49 % 1007,4 hPa 0,0 l/m 5,0 km/h (1 Bft) SO 5,8 C 16,5 C 9,7 km/h (2 Bft)
22.03.2023 19:00 13,3 C 63 % 1007,6 hPa 0,0 l/m 3,6 km/h (1 Bft) SO 6,4 C 13,3 C 3,6 km/h (1 Bft)
22.03.2023 20:00 14,3 C 59 % 1007,5 hPa 0,0 l/m 2,5 km/h (1 Bft) O-SO 6,4 C 14,3 C 3,6 km/h (1 Bft)
22.03.2023 21:00 12,2 C 69 % 1007,7 hPa 0,0 l/m 2,5 km/h (1 Bft) O-SO 6,7 C 12,2 C 3,6 km/h (1 Bft)
22.03.2023 22:00 11,3 C 74 % 1007,9 hPa 0,0 l/m 2,5 km/h (1 Bft) O-NO 6,8 C 11,3 C 3,6 km/h (1 Bft)
22.03.2023 23:00 11,2 C 75 % 1008,0 hPa 0,0 l/m 1,1 km/h (1 Bft) N 6,9 C 11,2 C 2,5 km/h (1 Bft)
23.03.2023 00:00 10,7 C 84 % 1007,8 hPa 0,0 l/m 0,0 km/h (0 Bft) O 8,1 C 10,7 C 2,5 km/h (1 Bft)
23.03.2023 01:00 10,4 C 88 % 1007,4 hPa 0,0 l/m 3,6 km/h (1 Bft) O 8,5 C 10,4 C 3,6 km/h (1 Bft)
23.03.2023 02:00 11,3 C 85 % 1006,9 hPa 0,0 l/m 1,1 km/h (1 Bft) O-NO 8,9 C 11,3 C 2,5 km/h (1 Bft)
23.03.2023 03:00 11,6 C 83 % 1006,3 hPa 0,0 l/m 5,0 km/h (1 Bft) NO 8,8 C 11,6 C 6,1 km/h (2 Bft)
23.03.2023 04:00 15,0 C 62 % 1005,7 hPa 0,0 l/m 1,1 km/h (1 Bft) NW 7,8 C 15,0 C 2,5 km/h (1 Bft)
23.03.2023 05:00 15,2 C 59 % 1005,7 hPa 0,0 l/m 5,0 km/h (1 Bft) SW 7,2 C 15,2 C 7,2 km/h (2 Bft)
23.03.2023 06:00 15,9 C 56 % 1006,0 hPa 0,0 l/m 13,3 km/h (3 Bft) W 7,1 C 12,8 C 20,9 km/h (4 Bft)
23.03.2023 07:00 15,1 C 62 % 1006,9 hPa 0,0 l/m 7,2 km/h (2 Bft) W-SW 7,9 C 14,6 C 9,7 km/h (2 Bft)
23.03.2023 08:00 14,5 C 68 % 1007,4 hPa 0,3 l/m 5,0 km/h (1 Bft) S-SW 8,7 C 14,5 C 7,2 km/h (2 Bft)
23.03.2023 09:00 13,8 C 75 % 1008,0 hPa 0,6 l/m 3,6 km/h (1 Bft) S-SO 9,4 C 13,8 C 7,2 km/h (2 Bft)
23.03.2023 10:00 13,5 C 80 % 1008,2 hPa 0,3 l/m 2,5 km/h (1 Bft) S 10,1 C 13,5 C 3,6 km/h (1 Bft)
23.03.2023 11:00 15,3 C 64 % 1008,2 hPa 0,0 l/m 7,2 km/h (2 Bft) SW 8,5 C 14,9 C 11,2 km/h (2 Bft)
23.03.2023 12:00 16,0 C 66 % 1008,1 hPa 0,0 l/m 7,2 km/h (2 Bft) W-SW 9,7 C 15,6 C 11,2 km/h (2 Bft)
23.03.2023 13:00 16,3 C 62 % 1007,9 hPa 0,0 l/m 12,2 km/h (2 Bft) W-SW 9,0 C 13,7 C 18,4 km/h (3 Bft)
23.03.2023 14:00 16,3 C 63 % 1007,7 hPa 0,0 l/m 6,1 km/h (2 Bft) SW 9,2 C 16,3 C 9,7 km/h (2 Bft)
23.03.2023 15:00 16,0 C 61 % 1007,1 hPa 0,0 l/m 7,2 km/h (2 Bft) W-SW 8,5 C 15,6 C 11,2 km/h (2 Bft)
23.03.2023 16:00 15,6 C 65 % 1006,6 hPa 0,0 l/m 5,0 km/h (1 Bft) W-SW 9,0 C 15,6 C 7,2 km/h (2 Bft)
23.03.2023 17:00 15,5 C 64 % 1006,4 hPa 0,0 l/m 1,1 km/h (1 Bft) W 8,7 C 15,5 C 3,6 km/h (1 Bft)
23.03.2023 18:00 15,5 C 65 % 1006,6 hPa 0,0 l/m 5,0 km/h (1 Bft) SW 8,9 C 15,5 C 6,1 km/h (2 Bft)
23.03.2023 19:00 14,5 C 70 % 1006,4 hPa 0,0 l/m 1,1 km/h (1 Bft) N 9,1 C 14,5 C 2,5 km/h (1 Bft)
23.03.2023 20:00 12,7 C 79 % 1006,3 hPa 0,0 l/m 0,0 km/h (0 Bft) N-NO 9,2 C 12,7 C 2,5 km/h (1 Bft)
23.03.2023 21:00 12,6 C 79 % 1005,7 hPa 0,0 l/m 2,5 km/h (1 Bft) N-NO 9,1 C 12,6 C 3,6 km/h (1 Bft)
23.03.2023 22:00 12,4 C 83 % 1004,5 hPa 0,0 l/m 1,1 km/h (1 Bft) N 9,6 C 12,4 C 3,6 km/h (1 Bft)
23.03.2023 23:00 12,2 C 84 % 1004,5 hPa 0,0 l/m 0,0 km/h (0 Bft) N-NO 9,6 C 12,2 C 2,5 km/h (1 Bft)
24.03.2023 00:00 11,9 C 86 % 1004,5 hPa 0,0 l/m 1,1 km/h (1 Bft) N-NO 9,6 C 11,9 C 2,5 km/h (1 Bft)
24.03.2023 01:00 11,0 C 88 % 1003,6 hPa 0,0 l/m 2,5 km/h (1 Bft) N-NO 9,1 C 11,0 C 2,5 km/h (1 Bft)
24.03.2023 02:00 10,8 C 90 % 1003,3 hPa 0,0 l/m 1,1 km/h (1 Bft) N 9,2 C 10,8 C 3,6 km/h (1 Bft)
24.03.2023 03:00 11,1 C 90 % 1002,9 hPa 0,0 l/m 0,0 km/h (0 Bft) N-NO 9,5 C 11,1 C 0,0 km/h (0 Bft)
24.03.2023 04:00 11,7 C 85 % 1002,5 hPa 0,0 l/m 2,5 km/h (1 Bft) W-SW 9,3 C 11,7 C 3,6 km/h (1 Bft)
24.03.2023 05:00 14,2 C 78 % 1004,2 hPa 0,0 l/m 15,8 km/h (3 Bft) W-SW 10,4 C 10,0 C 22,0 km/h (4 Bft)
24.03.2023 06:00 13,5 C 82 % 1004,1 hPa 0,6 l/m 8,6 km/h (2 Bft) S 10,5 C 12,2 C 14,8 km/h (3 Bft)
24.03.2023 07:00 12,5 C 89 % 1004,9 hPa 1,2 l/m 9,7 km/h (2 Bft) SW 10,7 C 10,5 C 14,8 km/h (3 Bft)
24.03.2023 08:00 11,9 C 94 % 1005,7 hPa 1,8 l/m 3,6 km/h (1 Bft) S-SO 11,0 C 11,9 C 6,1 km/h (2 Bft)
24.03.2023 09:00 12,8 C 88 % 1005,0 hPa 1,5 l/m 11,2 km/h (2 Bft) S 10,9 C 10,1 C 17,3 km/h (3 Bft)
24.03.2023 10:00 13,4 C 83 % 1005,8 hPa 0,0 l/m 7,2 km/h (2 Bft) SW 10,6 C 12,9 C 11,2 km/h (2 Bft)
24.03.2023 11:00 13,0 C 85 % 1006,5 hPa 0,0 l/m 18,4 km/h (3 Bft) SW 10,5 C 7,6 C 25,6 km/h (4 Bft)
24.03.2023 12:00 12,9 C 82 % 1006,6 hPa 0,3 l/m 11,2 km/h (2 Bft) SW 9,9 C 10,2 C 14,8 km/h (3 Bft)
24.03.2023 13:00 13,0 C 81 % 1006,4 hPa 0,0 l/m 14,8 km/h (3 Bft) SW 9,8 C 8,8 C 18,4 km/h (3 Bft)
24.03.2023 14:00 12,8 C 80 % 1006,5 hPa 0,0 l/m 13,3 km/h (3 Bft) S 9,4 C 9,2 C 20,9 km/h (4 Bft)
24.03.2023 15:00 12,2 C 81 % 1006,0 hPa 0,0 l/m 12,2 km/h (2 Bft) S-SW 9,0 C 9,0 C 17,3 km/h (3 Bft)
24.03.2023 16:00 12,7 C 77 % 1006,1 hPa 0,0 l/m 11,2 km/h (2 Bft) S-SW 8,8 C 10,0 C 17,3 km/h (3 Bft)
24.03.2023 17:00 12,9 C 75 % 1005,7 hPa 0,0 l/m 8,6 km/h (2 Bft) SW 8,6 C 11,5 C 11,2 km/h (2 Bft)
24.03.2023 18:00 12,3 C 73 % 1006,3 hPa 0,0 l/m 14,8 km/h (3 Bft) W-SW 7,6 C 8,0 C 18,4 km/h (3 Bft)
24.03.2023 19:00 11,6 C 72 % 1006,7 hPa 0,0 l/m 9,7 km/h (2 Bft) W-SW 6,7 C 9,5 C 14,8 km/h (3 Bft)
24.03.2023 20:00 11,2 C 74 % 1007,1 hPa 0,0 l/m 12,2 km/h (2 Bft) W-SW 6,7 C 7,8 C 20,9 km/h (4 Bft)
24.03.2023 21:00 11,2 C 78 % 1007,6 hPa 0,0 l/m 9,7 km/h (2 Bft) W-SW 7,5 C 9,1 C 13,3 km/h (3 Bft)
24.03.2023 22:00 10,0 C 84 % 1008,1 hPa 0,3 l/m 7,2 km/h (2 Bft) W-SW 7,4 C 9,4 C 9,7 km/h (2 Bft)
24.03.2023 23:00 10,5 C 78 % 1008,2 hPa 0,6 l/m 9,7 km/h (2 Bft) SW 6,8 C 8,3 C 17,3 km/h (3 Bft)
25.03.2023 00:00 10,7 C 77 % 1008,5 hPa 0,0 l/m 12,2 km/h (2 Bft) SW 6,8 C 7,2 C 24,5 km/h (4 Bft)
25.03.2023 01:00 10,5 C 77 % 1008,2 hPa 0,0 l/m 9,7 km/h (2 Bft) W-SW 6,6 C 8,3 C 17,3 km/h (3 Bft)
25.03.2023 02:00 7,9 C 91 % 1008,7 hPa 1,5 l/m 3,6 km/h (1 Bft) W-SW 6,5 C 7,9 C 3,6 km/h (1 Bft)
25.03.2023 03:00 8,5 C 87 % 1008,7 hPa 0,9 l/m 12,2 km/h (2 Bft) S-SW 6,5 C 4,7 C 17,3 km/h (3 Bft)
25.03.2023 04:00 7,7 C 82 % 1009,0 hPa 0,0 l/m 14,8 km/h (3 Bft) S-SW 4,8 C 2,4 C 24,5 km/h (4 Bft)
25.03.2023 05:00 7,9 C 82 % 1009,2 hPa 0,0 l/m 8,6 km/h (2 Bft) W-SW 5,0 C 6,2 C 11,2 km/h (2 Bft)
25.03.2023 06:00 7,4 C 86 % 1009,6 hPa 0,3 l/m 9,7 km/h (2 Bft) SW 5,2 C 4,9 C 17,3 km/h (3 Bft)
25.03.2023 07:00 7,9 C 86 % 1009,6 hPa 0,0 l/m 13,3 km/h (3 Bft) SW 5,7 C 3,4 C 18,4 km/h (3 Bft)
25.03.2023 08:00 8,6 C 80 % 1009,3 hPa 0,0 l/m 12,2 km/h (2 Bft) W-SW 5,3 C 4,8 C 18,4 km/h (3 Bft)
25.03.2023 09:00 8,5 C 87 % 1009,5 hPa 0,3 l/m 8,6 km/h (2 Bft) W-SW 6,5 C 6,9 C 14,8 km/h (3 Bft)
25.03.2023 10:00 8,6 C 83 % 1009,5 hPa 0,0 l/m 14,8 km/h (3 Bft) W 5,9 C 3,5 C 20,9 km/h (4 Bft)
25.03.2023 11:00 9,6 C 79 % 1010,0 hPa 0,0 l/m 9,7 km/h (2 Bft) S-SW 6,1 C 7,3 C 14,8 km/h (3 Bft)
25.03.2023 12:00 11,0 C 76 % 1009,6 hPa 0,0 l/m 12,2 km/h (2 Bft) W-SW 6,9 C 7,6 C 18,4 km/h (3 Bft)
25.03.2023 13:00 11,3 C 72 % 1009,8 hPa 0,0 l/m 15,8 km/h (3 Bft) W-SW 6,4 C 6,4 C 20,9 km/h (4 Bft)
25.03.2023 14:00 11,0 C 77 % 1009,4 hPa 0,3 l/m 13,3 km/h (3 Bft) SW 7,1 C 7,1 C 20,9 km/h (4 Bft)
25.03.2023 15:00 12,6 C 70 % 1009,3 hPa 0,0 l/m 12,2 km/h (2 Bft) W 7,3 C 9,4 C 17,3 km/h (3 Bft)
25.03.2023 16:00 12,4 C 66 % 1009,4 hPa 0,0 l/m 9,7 km/h (2 Bft) SW 6,2 C 10,4 C 14,8 km/h (3 Bft)
25.03.2023 17:00 11,2 C 72 % 1009,2 hPa 0,0 l/m 12,2 km/h (2 Bft) W-SW 6,3 C 7,8 C 18,4 km/h (3 Bft)
25.03.2023 18:00 10,6 C 79 % 1009,2 hPa 0,0 l/m 5,0 km/h (1 Bft) S-SW 7,1 C 10,6 C 6,1 km/h (2 Bft)
25.03.2023 19:00 10,3 C 77 % 1009,6 hPa 0,0 l/m 6,1 km/h (2 Bft) W 6,4 C 10,3 C 7,2 km/h (2 Bft)
25.03.2023 20:00 11,0 C 72 % 1009,7 hPa 0,0 l/m 9,7 km/h (2 Bft) SW 6,2 C 8,9 C 17,3 km/h (3 Bft)
25.03.2023 21:00 9,8 C 80 % 1009,7 hPa 0,3 l/m 11,2 km/h (2 Bft) W-SW 6,5 C 6,7 C 14,8 km/h (3 Bft)
25.03.2023 22:00 10,3 C 76 % 1009,6 hPa 0,0 l/m 9,7 km/h (2 Bft) S 6,3 C 8,1 C 13,3 km/h (3 Bft)
25.03.2023 23:00 10,3 C 77 % 1009,4 hPa 0,0 l/m 5,0 km/h (1 Bft) W-SW 6,4 C 10,3 C 7,2 km/h (2 Bft)
26.03.2023 00:00 10,1 C 78 % 1009,0 hPa 0,0 l/m 6,1 km/h (2 Bft) S-SO 6,4 C 10,1 C 9,7 km/h (2 Bft)
26.03.2023 01:00 9,4 C 80 % 1008,7 hPa 0,0 l/m 2,5 km/h (1 Bft) O-NO 6,1 C 9,4 C 3,6 km/h (1 Bft)
26.03.2023 03:00 8,1 C 88 % 1008,2 hPa 0,0 l/m 2,5 km/h (1 Bft) O-SO 6,2 C 8,1 C 3,6 km/h (1 Bft)
26.03.2023 04:00 7,5 C 91 % 1006,5 hPa 0,0 l/m 1,1 km/h (1 Bft) N 6,1 C 7,5 C 3,6 km/h (1 Bft)
26.03.2023 05:00 7,2 C 94 % 1005,4 hPa 0,0 l/m 0,0 km/h (0 Bft) O 6,3 C 7,2 C 2,5 km/h (1 Bft)
26.03.2023 06:00 7,1 C 93 % 1004,4 hPa 0,0 l/m 1,1 km/h (1 Bft) S-SW 6,0 C 7,1 C 2,5 km/h (1 Bft)
26.03.2023 07:00 10,2 C 76 % 1003,3 hPa 0,0 l/m 9,7 km/h (2 Bft) SO 6,2 C 8,0 C 13,3 km/h (3 Bft)
26.03.2023 08:00 9,3 C 84 % 1001,9 hPa 0,0 l/m 3,6 km/h (1 Bft) S-SW 6,7 C 9,3 C 3,6 km/h (1 Bft)
26.03.2023 09:00 9,9 C 83 % 1001,3 hPa 0,3 l/m 3,6 km/h (1 Bft) S 7,2 C 9,9 C 6,1 km/h (2 Bft)
26.03.2023 10:00 9,4 C 87 % 1001,9 hPa 0,3 l/m 11,2 km/h (2 Bft) SW 7,3 C 6,2 C 17,3 km/h (3 Bft)
26.03.2023 11:00 12,0 C 78 % 1001,8 hPa 0,0 l/m 13,3 km/h (3 Bft) W-NW 8,3 C 8,2 C 22,0 km/h (4 Bft)
26.03.2023 12:00 14,0 C 57 % 1002,0 hPa 0,0 l/m 11,2 km/h (2 Bft) W 5,6 C 11,5 C 20,9 km/h (4 Bft)
26.03.2023 13:00 13,5 C 65 % 1001,6 hPa 0,0 l/m 13,3 km/h (3 Bft) SW 7,1 C 10,0 C 28,1 km/h (4 Bft)
26.03.2023 14:00 10,6 C 69 % 1001,6 hPa 0,0 l/m 12,2 km/h (2 Bft) S 5,2 C 7,1 C 18,4 km/h (3 Bft)
26.03.2023 15:00 10,9 C 70 % 1000,8 hPa 0,0 l/m 6,1 km/h (2 Bft) NW 5,6 C 10,9 C 9,7 km/h (2 Bft)
26.03.2023 16:00 7,7 C 86 % 1002,4 hPa 1,5 l/m 9,7 km/h (2 Bft) S 5,5 C 5,2 C 14,8 km/h (3 Bft)
26.03.2023 17:00 9,0 C 82 % 1001,8 hPa 0,0 l/m 5,0 km/h (1 Bft) S-SW 6,1 C 9,0 C 7,2 km/h (2 Bft)
26.03.2023 18:00 8,7 C 78 % 1002,3 hPa 0,0 l/m 9,7 km/h (2 Bft) W-SW 5,1 C 6,3 C 13,3 km/h (3 Bft)
26.03.2023 19:00 8,4 C 78 % 1002,3 hPa 0,0 l/m 13,3 km/h (3 Bft) W-SW 4,8 C 4,0 C 18,4 km/h (3 Bft)
26.03.2023 20:00 8,2 C 81 % 1002,4 hPa 0,0 l/m 6,1 km/h (2 Bft) W-SW 5,1 C 8,2 C 9,7 km/h (2 Bft)
26.03.2023 21:00 8,0 C 81 % 1002,2 hPa 0,0 l/m 1,1 km/h (1 Bft) W-SW 4,9 C 8,0 C 2,5 km/h (1 Bft)
26.03.2023 22:00 7,1 C 88 % 1002,5 hPa 0,0 l/m 2,5 km/h (1 Bft) W 5,2 C 7,1 C 3,6 km/h (1 Bft)
26.03.2023 23:00 6,9 C 87 % 1002,7 hPa 0,0 l/m 1,1 km/h (1 Bft) W 4,9 C 6,9 C 3,6 km/h (1 Bft)
Min-Datum _ 21.03.23 22.03.23 26.03.23 - 20.03.23 - 21.03.23 25.03.23 20.03.23
_ Min-Zeit 06:37 16:37 15:37 - 00:37 - 06:37 04:37 00:37
Minimum _ 3,0 C 43 % 1000,8 hPa - 0,0 km/h (0 Bft) - 2,3 C 2,4 C 0,0 km/h (0 Bft)
Max-Datum _ 22.03.23 20.03.23 20.03.23 24.03.23 24.03.23 - 24.03.23 22.03.23 26.03.23
_ Max-Zeit 14:37 01:37 12:37 08:37 11:37 - 08:37 14:37 13:37
Maximum _ 19,1 C 99 % 1018,2 hPa 1,8 l/m 18,4 km/h
SW (3 Bft)
- 11,0 C 18,2 C 28,1 km/h
SW (4 Bft)
Durchschnitt _ 11,1 C 78 % 1009,2 hPa #13,2 l/m 5,5 km/h (1 Bft) W-SW 7,1 C 10,1 C 8,6 km/h (2 Bft)
www.sexauwetter.de